Time;durP1;ratioP1;P1;durP2;ratioP2;P2;SDS_P1;SDS_P2;PMS_P1;PMS_P2;Temp;Humidity;BMP_temperature;BMP_pressure;BME280_temperature;BME280_humidity;BME280_pressure;Samples;Min_cycle;Max_cycle;Signal;HPM_P1;HPM_P2
2024/03/16 00:01:16;;;;;;;2.63;1.00;;;;;;;15.20;67.21;100562.34;5013765;28;20053;-78
2024/03/16 00:04:21;;;;;;;2.13;0.93;;;;;;;15.27;66.80;100549.88;5013765;28;20497;-78
2024/03/16 00:07:25;;;;;;;4.60;1.10;;;;;;;14.79;68.38;100553.09;5013561;28;20049;-77
2024/03/16 00:10:31;;;;;;;2.13;0.98;;;;;;;14.64;69.26;100544.69;5012356;28;20436;-77
2024/03/16 00:13:36;;;;;;;1.95;0.73;;;;;;;14.41;69.93;100546.19;5001530;28;20061;-78
2024/03/16 00:16:40;;;;;;;2.65;0.80;;;;;;;14.30;70.84;100540.97;4993909;28;20049;-77
2024/03/16 00:19:48;;;;;;;1.88;1.10;;;;;;;14.31;70.21;100546.28;4993610;28;20073;-78
2024/03/16 00:22:52;;;;;;;1.42;0.60;;;;;;;14.60;69.56;100546.03;4993903;28;20046;-78
2024/03/16 00:25:57;;;;;;;1.92;0.80;;;;;;;14.26;69.82;100543.16;4993799;28;20046;-77
2024/03/16 00:29:07;;;;;;;2.60;0.80;;;;;;;14.47;69.37;100550.97;4997414;28;20054;-77
2024/03/16 00:32:11;;;;;;;2.80;0.60;;;;;;;14.33;69.93;100548.81;4997206;28;20046;-77
2024/03/16 00:35:15;;;;;;;2.60;1.10;;;;;;;14.61;69.25;100550.44;4997378;28;20053;-78
2024/03/16 00:38:20;;;;;;;1.90;0.70;;;;;;;14.89;67.89;100554.69;4997307;28;20049;-77
2024/03/16 00:41:25;;;;;;;2.42;0.90;;;;;;;14.96;67.71;100547.66;4997058;28;20496;-78
2024/03/16 00:44:30;;;;;;;2.78;0.98;;;;;;;14.80;67.71;100549.38;4997151;28;20390;-77
2024/03/16 00:47:34;;;;;;;2.60;1.00;;;;;;;14.71;68.00;100548.50;4996232;28;20054;-77
2024/03/16 00:50:39;;;;;;;3.17;1.10;;;;;;;14.33;69.61;100543.41;4999171;28;20497;-78
2024/03/16 00:53:45;;;;;;;2.13;0.80;;;;;;;14.94;66.95;100554.22;5003853;28;20050;-78
2024/03/16 00:56:51;;;;;;;2.28;0.85;;;;;;;15.03;66.69;100563.25;5005197;28;20049;-78
2024/03/16 00:59:56;;;;;;;3.33;0.90;;;;;;;15.00;67.05;100553.59;4996991;28;20057;-77
2024/03/16 01:03:01;;;;;;;2.75;0.90;;;;;;;14.29;69.36;100550.09;4974161;28;20126;-77
2024/03/16 01:06:05;;;;;;;1.73;0.60;;;;;;;14.43;68.77;100563.09;4996861;28;20061;-77
2024/03/16 01:09:09;;;;;;;2.55;0.88;;;;;;;14.62;68.38;100565.63;4996662;28;20057;-77
2024/03/16 01:12:14;;;;;;;2.13;0.90;;;;;;;14.64;67.86;100560.91;4996713;28;20058;-77
2024/03/16 01:15:20;;;;;;;2.20;0.82;;;;;;;14.61;68.41;100563.94;5005103;28;20057;-77
2024/03/16 01:18:25;;;;;;;2.20;0.70;;;;;;;14.73;67.94;100562.69;5004173;28;20053;-78
2024/03/16 01:21:32;;;;;;;1.92;0.73;;;;;;;14.57;68.02;100557.13;5016095;28;20076;-78
2024/03/16 01:24:36;;;;;;;2.58;0.95;;;;;;;14.20;69.86;100545.59;5015674;28;20045;-78
2024/03/16 01:27:40;;;;;;;1.80;0.80;;;;;;;14.51;68.28;100551.50;5016011;28;20065;-77
2024/03/16 01:30:45;;;;;;;2.45;0.70;;;;;;;14.66;67.70;100553.53;5015160;28;20073;-77
2024/03/16 01:33:51;;;;;;;4.05;1.42;;;;;;;14.38;68.32;100545.63;5015909;28;20057;-78
2024/03/16 01:36:55;;;;;;;1.85;0.73;;;;;;;14.06;69.19;100551.53;5016161;28;20065;-77
2024/03/16 01:40:00;;;;;;;3.40;0.80;;;;;;;13.59;71.43;100540.84;5015184;28;20069;-78
2024/03/16 01:43:06;;;;;;;1.75;0.73;;;;;;;13.65;71.45;100526.75;5015692;28;20049;-77
2024/03/16 01:46:15;;;;;;;2.42;0.80;;;;;;;13.58;71.67;100532.91;5003752;28;20052;-77
2024/03/16 01:49:19;;;;;;;2.10;0.90;;;;;;;13.43;71.88;100534.41;5015351;28;20049;-77
2024/03/16 01:52:28;;;;;;;1.77;0.82;;;;;;;13.48;71.83;100529.44;5015489;28;20049;-77
2024/03/16 01:55:34;;;;;;;2.08;0.70;;;;;;;13.56;71.36;100524.13;5003308;28;20381;-77
2024/03/16 01:58:43;;;;;;;2.25;0.80;;;;;;;13.62;70.90;100520.84;5003310;28;20060;-77
2024/03/16 02:01:47;;;;;;;1.63;0.77;;;;;;;13.80;70.51;100523.56;5015399;28;20397;-77
2024/03/16 02:04:51;;;;;;;2.30;0.73;;;;;;;13.86;70.46;100522.97;5015249;28;20092;-77
2024/03/16 02:07:56;;;;;;;1.92;0.70;;;;;;;13.81;70.21;100520.72;5014394;28;20049;-77
2024/03/16 02:11:00;;;;;;;2.17;0.93;;;;;;;13.78;70.42;100522.84;5015186;28;20049;-77
2024/03/16 02:14:05;;;;;;;3.13;0.90;;;;;;;13.94;70.44;100525.75;5015178;28;20488;-77
2024/03/16 02:17:10;;;;;;;1.70;0.60;;;;;;;13.89;70.22;100528.06;4994644;28;20065;-77
2024/03/16 02:20:15;;;;;;;3.00;0.60;;;;;;;13.68;70.63;100518.38;4995386;28;20069;-77
2024/03/16 02:23:21;;;;;;;2.35;0.98;;;;;;;13.68;70.96;100518.38;4995529;28;20061;-78
2024/03/16 02:26:26;;;;;;;2.38;1.08;;;;;;;13.85;70.47;100524.78;4996425;28;20053;-77
2024/03/16 02:29:32;;;;;;;1.73;0.70;;;;;;;13.83;70.10;100524.09;5009218;28;20055;-78
2024/03/16 02:32:37;;;;;;;1.70;0.90;;;;;;;13.59;70.55;100537.31;4972913;28;20494;-77
2024/03/16 02:35:42;;;;;;;1.58;0.65;;;;;;;13.42;71.75;100530.88;5012903;28;20048;-78
2024/03/16 02:38:47;;;;;;;1.75;0.82;;;;;;;13.43;71.57;100526.31;4995259;28;20053;-78
2024/03/16 02:41:52;;;;;;;2.63;0.80;;;;;;;13.53;71.20;100543.28;4994816;28;20050;-77
2024/03/16 02:44:57;;;;;;;1.48;0.70;;;;;;;13.38;71.46;100544.78;4995035;28;20497;-78
2024/03/16 02:48:01;;;;;;;2.67;0.52;;;;;;;13.29;72.89;100548.34;4982902;28;20050;-78
2024/03/16 02:51:07;;;;;;;1.90;0.80;;;;;;;13.24;73.31;100548.81;4994848;28;20053;-78
2024/03/16 02:54:11;;;;;;;2.15;0.85;;;;;;;13.20;73.23;100542.00;4994907;28;20053;-78
2024/03/16 02:57:16;;;;;;;2.22;1.05;;;;;;;13.05;74.03;100540.75;4994858;28;20057;-78
2024/03/16 03:00:21;;;;;;;2.70;0.85;;;;;;;13.04;74.00;100541.72;4994751;28;20057;-78
2024/03/16 03:03:25;;;;;;;1.65;0.65;;;;;;;12.99;74.13;100544.00;4994695;28;20212;-77
2024/03/16 03:06:29;;;;;;;3.67;0.90;;;;;;;12.79;74.58;100535.13;4994642;28;20054;-78
2024/03/16 03:09:33;;;;;;;1.83;0.70;;;;;;;12.98;74.05;100543.19;4994548;28;20058;-78
2024/03/16 03:12:38;;;;;;;1.83;0.85;;;;;;;13.16;73.83;100539.75;4994583;28;20054;-78
2024/03/16 03:15:48;;;;;;;1.63;0.70;;;;;;;13.23;73.09;100539.03;5005420;28;20049;-77
2024/03/16 03:18:53;;;;;;;2.85;0.70;;;;;;;13.09;73.42;100533.22;5013799;28;20049;-78
2024/03/16 03:21:58;;;;;;;1.33;0.68;;;;;;;12.71;75.29;100547.63;5014060;28;20060;-78
2024/03/16 03:25:02;;;;;;;2.85;0.82;;;;;;;13.05;73.94;100546.13;5014188;28;20053;-78
2024/03/16 03:28:06;;;;;;;2.58;1.40;;;;;;;13.18;73.08;100552.09;5013764;28;20061;-77
2024/03/16 03:31:11;;;;;;;3.25;0.80;;;;;;;13.15;73.19;100541.59;5014059;28;20053;-77
2024/03/16 03:34:15;;;;;;;1.13;0.50;;;;;;;13.21;73.25;100538.31;5014019;28;20048;-77
2024/03/16 03:37:20;;;;;;;1.58;0.70;;;;;;;13.14;73.12;100541.72;5013698;28;20053;-77
2024/03/16 03:40:26;;;;;;;1.75;0.60;;;;;;;13.21;73.20;100540.19;5013952;28;20056;-76
2024/03/16 03:43:33;;;;;;;2.20;0.73;;;;;;;13.14;73.04;100539.88;5013906;28;20056;-77
2024/03/16 03:46:49;;;;;;;1.35;0.60;;;;;;;12.99;73.56;100546.69;5014183;28;20373;-77
2024/03/16 03:49:53;;;;;;;2.13;1.05;;;;;;;12.96;74.13;100553.22;5013786;28;20049;-77
2024/03/16 03:53:04;;;;;;;3.17;0.80;;;;;;;13.16;72.98;100562.16;5013711;28;20052;-78
2024/03/16 03:56:08;;;;;;;5.82;1.63;;;;;;;13.06;73.72;100558.63;5013567;28;20484;-77
2024/03/16 03:59:13;;;;;;;1.50;0.60;;;;;;;13.05;73.21;100555.06;5013904;28;20053;-77
2024/03/16 04:02:17;;;;;;;3.22;0.75;;;;;;;13.07;73.92;100563.03;5015677;28;20057;-77
2024/03/16 04:05:22;;;;;;;1.80;0.80;;;;;;;13.09;73.78;100566.44;5017434;28;20057;-76
2024/03/16 04:08:27;;;;;;;1.85;0.75;;;;;;;13.21;73.03;100562.56;5017383;28;20500;-76
2024/03/16 04:11:31;;;;;;;5.13;0.90;;;;;;;13.30;72.81;100567.09;5023006;28;20041;-77
2024/03/16 04:14:36;;;;;;;1.85;0.63;;;;;;;13.33;72.60;100560.56;5030215;28;20056;-77
2024/03/16 04:17:40;;;;;;;2.75;0.70;;;;;;;13.32;72.45;100565.09;5017366;28;20053;-78
2024/03/16 04:20:44;;;;;;;2.60;0.70;;;;;;;13.24;72.88;100578.44;5017160;28;20065;-77
2024/03/16 04:23:49;;;;;;;2.00;0.85;;;;;;;13.28;72.58;100574.44;5016319;28;20049;-76
2024/03/16 04:26:53;;;;;;;3.40;0.70;;;;;;;13.22;73.00;100572.38;5017297;28;20041;-77
2024/03/16 04:29:58;;;;;;;1.58;0.70;;;;;;;13.03;73.87;100583.16;5017057;28;20469;-77
2024/03/16 04:33:03;;;;;;;2.35;0.80;;;;;;;13.18;73.64;100580.88;5016937;28;20382;-78
2024/03/16 04:36:08;;;;;;;2.50;0.95;;;;;;;13.32;72.94;100578.56;5016938;28;20068;-77
2024/03/16 04:39:13;;;;;;;2.97;0.90;;;;;;;13.36;72.70;100585.38;5016071;28;20045;-79
2024/03/16 04:42:17;;;;;;;1.35;0.70;;;;;;;13.29;73.06;100578.88;5017034;28;20061;-77
2024/03/16 04:45:22;;;;;;;2.10;0.82;;;;;;;13.22;73.43;100572.38;5004696;28;20045;-77
2024/03/16 04:48:26;;;;;;;2.40;0.70;;;;;;;13.20;73.52;100570.81;5016750;28;20053;-77
2024/03/16 04:51:31;;;;;;;1.80;0.90;;;;;;;13.12;73.54;100576.94;5016738;28;20496;-77
2024/03/16 04:54:35;;;;;;;3.03;0.75;;;;;;;12.72;75.12;100578.94;5016096;28;20139;-77
2024/03/16 04:57:40;;;;;;;2.83;0.65;;;;;;;12.82;75.00;100577.94;5016895;28;20389;-77
2024/03/16 05:00:44;;;;;;;3.08;0.80;;;;;;;12.98;74.28;100585.44;5015688;28;20057;-77
2024/03/16 05:03:49;;;;;;;3.20;1.23;;;;;;;12.93;74.54;100576.94;5015676;28;20057;-77
2024/03/16 05:06:53;;;;;;;2.38;1.02;;;;;;;12.86;75.07;100582.03;5016438;28;20057;-78
2024/03/16 05:09:57;;;;;;;1.60;0.73;;;;;;;12.83;75.31;100589.56;5016341;28;20052;-77
2024/03/16 05:13:02;;;;;;;2.00;0.75;;;;;;;12.79;75.98;100588.13;5014946;28;20053;-77
2024/03/16 05:16:07;;;;;;;4.63;0.75;;;;;;;12.46;76.89;100591.28;5031004;28;20061;-76
2024/03/16 05:19:11;;;;;;;1.40;0.60;;;;;;;12.67;76.31;100586.59;5036173;28;20057;-79
2024/03/16 05:22:16;;;;;;;1.73;0.73;;;;;;;12.79;76.57;100589.00;5035587;28;20052;-75
2024/03/16 05:25:20;;;;;;;3.40;0.80;;;;;;;12.71;75.69;100596.97;5020619;28;20052;-78
2024/03/16 05:28:25;;;;;;;2.42;0.90;;;;;;;12.41;77.07;100599.78;5000701;28;20050;-77
2024/03/16 05:31:31;;;;;;;2.63;0.75;;;;;;;12.65;76.91;100597.50;4996345;28;20053;-77
2024/03/16 05:34:35;;;;;;;2.17;0.88;;;;;;;12.68;76.37;100596.38;4996278;28;20061;-78
2024/03/16 05:37:40;;;;;;;2.90;0.90;;;;;;;12.27;78.41;100603.72;4995545;28;20050;-77
2024/03/16 05:40:46;;;;;;;1.90;0.90;;;;;;;12.19;78.79;100598.19;4996297;28;20105;-77
2024/03/16 05:43:52;;;;;;;1.92;0.50;;;;;;;12.25;79.18;100603.00;4996198;28;20049;-77
2024/03/16 05:46:56;;;;;;;1.90;0.77;;;;;;;12.50;78.13;100598.06;4996216;28;20061;-77
2024/03/16 05:50:03;;;;;;;1.75;0.63;;;;;;;12.45;78.48;100616.47;5002400;28;20049;-77
2024/03/16 05:53:08;;;;;;;1.75;1.08;;;;;;;12.59;77.50;100608.84;5007476;28;20057;-76
2024/03/16 05:56:12;;;;;;;2.85;0.90;;;;;;;12.78;77.11;100616.94;5002152;28;20050;-76
2024/03/16 05:59:17;;;;;;;3.28;1.10;;;;;;;12.74;76.60;100620.88;4995061;28;20065;-77
2024/03/16 06:02:22;;;;;;;1.70;0.90;;;;;;;12.94;76.77;100632.50;5007202;28;20371;-78
2024/03/16 06:05:26;;;;;;;4.30;0.90;;;;;;;13.08;75.64;100634.81;5014596;28;20048;-78
2024/03/16 06:08:32;;;;;;;1.80;0.80;;;;;;;13.24;74.85;100640.44;5015188;28;20119;-78
2024/03/16 06:11:37;;;;;;;4.38;1.45;;;;;;;13.29;75.21;100648.09;5014124;28;20053;-77
2024/03/16 06:14:41;;;;;;;3.05;0.95;;;;;;;13.45;75.10;100649.22;5014832;28;20069;-77
2024/03/16 06:17:46;;;;;;;3.92;1.40;;;;;;;12.92;75.30;100651.53;5014177;28;20045;-78
2024/03/16 06:20:50;;;;;;;3.80;1.40;;;;;;;12.83;76.67;100659.59;5014178;28;20061;-78
2024/03/16 06:23:54;;;;;;;6.63;1.50;;;;;;;12.88;75.96;100665.44;5014762;28;20049;-80
2024/03/16 06:27:05;;;;;;;2.58;1.08;;;;;;;12.95;75.61;100655.78;5002784;28;20041;-78
2024/03/16 06:30:12;;;;;;;5.25;1.90;;;;;;;12.70;75.88;100651.81;5014733;28;20109;-79
2024/03/16 06:33:30;;;;;;;3.42;1.35;;;;;;;13.02;75.41;100656.91;5014051;28;20053;-79
2024/03/16 06:36:36;;;;;;;2.55;1.05;;;;;;;12.74;76.00;100647.81;5014736;28;20500;-79
2024/03/16 06:39:40;;;;;;;2.47;1.10;;;;;;;12.70;76.10;100659.03;5002477;28;20520;-78
2024/03/16 06:42:44;;;;;;;6.28;1.02;;;;;;;13.21;74.20;100656.91;4996356;28;20049;-80
2024/03/16 06:45:49;;;;;;;2.67;1.05;;;;;;;13.37;73.64;100651.78;5002238;28;20393;-78
2024/03/16 06:48:53;;;;;;;4.80;1.13;;;;;;;13.65;72.82;100656.25;5005599;28;20049;-80
2024/03/16 06:51:59;;;;;;;2.92;1.10;;;;;;;13.90;71.81;100670.09;4982906;28;20049;-80
2024/03/16 06:55:03;;;;;;;2.95;1.50;;;;;;;14.05;71.47;100671.28;4993447;28;20057;-78
2024/03/16 06:58:09;;;;;;;2.35;1.08;;;;;;;14.44;70.37;100667.44;4994875;28;20104;-79
2024/03/16 07:01:14;;;;;;;5.63;1.17;;;;;;;14.59;68.90;100660.47;4982962;28;20061;-78
2024/03/16 07:04:19;;;;;;;3.28;2.05;;;;;;;14.79;68.94;100662.03;4994754;28;20065;-76
2024/03/16 07:07:23;;;;;;;2.83;1.60;;;;;;;14.98;68.56;100670.03;4995225;28;20397;-77
2024/03/16 07:10:29;;;;;;;4.53;1.40;;;;;;;14.82;69.73;100674.41;4994403;28;20053;-78
2024/03/16 07:13:35;;;;;;;3.75;1.40;;;;;;;15.59;67.56;100679.97;4994418;28;20504;-77
2024/03/16 07:16:39;;;;;;;2.55;1.10;;;;;;;15.20;67.01;100676.78;4981819;28;20045;-80
2024/03/16 07:19:45;;;;;;;5.15;0.90;;;;;;;15.53;66.42;100680.59;4994531;28;20104;-74
2024/03/16 07:22:50;;;;;;;1.80;0.70;;;;;;;17.07;61.66;100682.09;4994635;28;20050;-74
2024/03/16 07:25:54;;;;;;;2.40;0.90;;;;;;;17.87;58.01;100681.25;4994575;28;20382;-76
2024/03/16 07:28:59;;;;;;;1.60;0.80;;;;;;;17.87;57.28;100676.66;4994518;28;20046;-75
2024/03/16 07:32:04;;;;;;;2.50;0.77;;;;;;;17.62;58.00;100679.59;4994517;28;20402;-76
2024/03/16 07:35:09;;;;;;;3.47;0.93;;;;;;;18.12;57.33;100680.97;4996229;28;20061;-78
2024/03/16 07:38:14;;;;;;;1.90;0.80;;;;;;;18.44;56.21;100688.13;5005642;28;20057;-77
2024/03/16 07:41:19;;;;;;;1.63;0.75;;;;;;;19.81;52.94;100689.91;5018054;28;20053;-77
2024/03/16 07:44:25;;;;;;;1.63;0.90;;;;;;;21.05;49.75;100681.69;5018079;28;20489;-77
2024/03/16 07:47:31;;;;;;;4.85;1.05;;;;;;;21.66;47.31;100689.22;5017363;28;20057;-77
2024/03/16 07:50:37;;;;;;;2.42;0.82;;;;;;;22.13;47.07;100690.41;5016682;28;20060;-77
2024/03/16 07:53:41;;;;;;;3.42;0.90;;;;;;;22.01;46.17;100693.72;5012605;28;20056;-77
2024/03/16 07:56:45;;;;;;;1.73;0.60;;;;;;;22.88;44.19;100696.69;5018715;28;20083;-78
2024/03/16 07:59:50;;;;;;;2.10;0.80;;;;;;;24.41;41.27;100695.47;5012738;28;20053;-78
2024/03/16 08:02:55;;;;;;;2.40;0.68;;;;;;;25.63;39.07;100696.09;4998798;28;20053;-77
2024/03/16 08:06:04;;;;;;;3.08;1.10;;;;;;;27.26;35.46;100709.06;4997815;28;20053;-77
2024/03/16 08:09:08;;;;;;;3.20;0.82;;;;;;;27.88;34.12;100702.16;4997847;28;20061;-77
2024/03/16 08:12:13;;;;;;;2.78;0.80;;;;;;;27.96;34.85;100698.19;4997678;28;20054;-77
2024/03/16 08:15:17;;;;;;;2.35;0.85;;;;;;;30.04;31.75;100691.06;4997526;28;20406;-78
2024/03/16 08:18:22;;;;;;;2.13;1.05;;;;;;;32.57;28.31;100692.63;4997865;28;20053;-77
2024/03/16 08:21:26;;;;;;;3.08;0.82;;;;;;;33.74;26.82;100695.47;4997296;28;20497;-79
2024/03/16 08:24:32;;;;;;;2.22;0.88;;;;;;;33.62;26.25;100697.72;4997937;28;20382;-80
2024/03/16 08:27:37;;;;;;;1.92;0.70;;;;;;;35.39;25.13;100694.38;4997763;28;20481;-79
2024/03/16 08:30:42;;;;;;;2.85;0.77;;;;;;;36.58;23.18;100709.56;4997609;28;20392;-80
2024/03/16 08:33:47;;;;;;;2.05;0.70;;;;;;;35.97;23.50;100709.31;5026546;28;20056;-78
2024/03/16 08:36:52;;;;;;;5.13;0.73;;;;;;;35.55;23.93;100698.78;5032794;28;20052;-78
2024/03/16 08:39:56;;;;;;;2.22;0.70;;;;;;;36.42;23.64;100703.25;5036550;28;20052;-79
2024/03/16 08:43:01;;;;;;;2.38;0.77;;;;;;;36.14;23.37;100699.41;5036462;28;20052;-79
2024/03/16 08:46:06;;;;;;;1.05;0.50;;;;;;;34.85;25.13;100700.00;4996475;28;20045;-80
2024/03/16 08:49:11;;;;;;;3.10;0.70;;;;;;;35.28;24.29;100697.25;4996696;28;20050;-79
2024/03/16 08:52:16;;;;;;;4.15;0.80;;;;;;;36.03;24.01;100691.38;4997491;28;20050;-79
2024/03/16 08:55:21;;;;;;;1.65;0.47;;;;;;;36.21;23.67;100693.44;4995627;28;20069;-79
2024/03/16 08:58:26;;;;;;;2.88;1.30;;;;;;;36.82;23.05;100701.97;4996808;28;20061;-78
2024/03/16 09:01:31;;;;;;;3.05;1.10;;;;;;;36.23;23.74;100702.38;5016437;28;20080;-82
2024/03/16 09:04:36;;;;;;;1.80;0.70;;;;;;;36.32;23.25;100704.22;5017032;28;20500;-82
2024/03/16 09:07:40;;;;;;;3.97;1.88;;;;;;;36.55;23.50;100702.59;5016608;28;20049;-81
2024/03/16 09:10:44;;;;;;;3.22;0.75;;;;;;;35.20;24.57;100706.25;5016745;28;20402;-82
2024/03/16 09:13:49;;;;;;;2.03;0.60;;;;;;;35.69;24.22;100713.75;5004854;28;20195;-80
2024/03/16 09:16:54;;;;;;;2.92;0.73;;;;;;;34.13;25.14;100714.41;4996869;28;20045;-81
2024/03/16 09:19:58;;;;;;;2.00;0.60;;;;;;;34.57;25.30;100710.69;5003792;28;20057;-81
2024/03/16 09:23:03;;;;;;;2.88;1.45;;;;;;;34.36;25.72;100713.81;4996733;28;20057;-81
2024/03/16 09:26:07;;;;;;;0.93;0.40;;;;;;;34.08;26.26;100708.84;4997240;28;20053;-79
2024/03/16 09:29:12;;;;;;;2.13;0.80;;;;;;;34.52;25.47;100715.41;4996613;28;20154;-81
2024/03/16 09:32:17;;;;;;;2.80;0.88;;;;;;;32.65;27.74;100718.00;4996629;28;20071;-77
2024/03/16 09:35:22;;;;;;;2.42;0.90;;;;;;;29.76;31.47;100711.34;4989546;28;20066;-76
2024/03/16 09:38:26;;;;;;;2.03;1.23;;;;;;;28.57;33.91;100709.56;5008572;28;20053;-77
2024/03/16 09:41:31;;;;;;;2.42;1.00;;;;;;;27.46;35.41;100708.78;4997155;28;20489;-77
2024/03/16 09:44:36;;;;;;;2.60;1.00;;;;;;;26.63;37.47;100707.78;4996278;28;20049;-77
2024/03/16 09:47:40;;;;;;;3.15;1.10;;;;;;;26.20;38.95;100703.19;4996115;28;20062;-76
2024/03/16 09:50:49;;;;;;;4.07;1.73;;;;;;;25.59;39.63;100710.50;4996125;28;20069;-76
2024/03/16 09:53:54;;;;;;;3.47;1.42;;;;;;;24.38;42.80;100712.38;4983382;28;20053;-77
2024/03/16 09:56:59;;;;;;;3.33;1.52;;;;;;;23.65;44.89;100710.75;4990927;28;20097;-77
2024/03/16 10:00:06;;;;;;;3.55;1.83;;;;;;;23.40;46.07;100704.22;4995342;28;20512;-79
2024/03/16 10:03:17;;;;;;;3.65;1.83;;;;;;;22.99;48.63;100707.03;4995844;28;20053;-76
2024/03/16 10:06:22;;;;;;;3.78;1.80;;;;;;;22.60;49.13;100699.50;4999613;28;20110;-75
2024/03/16 10:09:27;;;;;;;4.13;1.90;;;;;;;22.32;50.41;100700.66;5002037;28;20057;-79
2024/03/16 10:12:33;;;;;;;12.38;2.72;;;;;;;22.34;50.92;100704.00;4976191;28;20053;-80
2024/03/16 10:15:45;;;;;;;3.95;2.15;;;;;;;22.47;49.57;100707.66;4986852;28;20150;-80
2024/03/16 10:18:53;;;;;;;5.68;2.05;;;;;;;22.57;49.09;100705.38;5002592;28;20049;-78
2024/03/16 10:21:58;;;;;;;4.50;2.28;;;;;;;22.75;48.60;100710.34;5009623;28;20057;-74
2024/03/16 10:25:09;;;;;;;6.70;3.10;;;;;;;22.69;50.17;100702.09;5024960;28;20048;-81
2024/03/16 10:28:15;;;;;;;9.55;4.32;;;;;;;22.66;50.12;100704.19;5024073;28;20045;-75
2024/03/16 10:31:22;;;;;;;7.57;3.85;;;;;;;22.54;50.16;100705.78;5021510;28;20049;-80
2024/03/16 10:34:29;;;;;;;8.02;4.05;;;;;;;22.47;50.96;100706.78;5019957;28;20515;-81
2024/03/16 10:37:35;;;;;;;6.13;3.88;;;;;;;22.32;52.08;100708.84;5024183;28;20049;-78
2024/03/16 10:40:40;;;;;;;6.43;3.63;;;;;;;21.80;53.36;100707.41;5022079;28;20068;-76
2024/03/16 10:43:45;;;;;;;9.32;3.80;;;;;;;21.51;54.57;100712.19;5023196;28;20516;-78
2024/03/16 10:46:51;;;;;;;7.30;3.42;;;;;;;21.40;53.48;100698.03;5024145;28;20049;-78
2024/03/16 10:49:56;;;;;;;6.57;4.07;;;;;;;21.23;55.98;100704.78;5000942;28;20057;-78
2024/03/16 10:53:02;;;;;;;6.43;4.00;;;;;;;21.23;56.93;100704.78;5008468;28;20512;-79
2024/03/16 10:56:07;;;;;;;5.05;3.53;;;;;;;21.44;55.51;100694.91;5008570;28;20048;-83
2024/03/16 10:59:29;;;;;;;10.48;7.18;;;;;;;21.44;56.75;100700.38;5033111;28;20044;-85
2024/03/16 11:02:34;;;;;;;9.05;5.60;;;;;;;21.59;56.03;100701.13;5033479;28;20044;-83
2024/03/16 11:05:45;;;;;;;10.00;4.75;;;;;;;21.49;55.06;100696.00;5022186;28;20057;-84
2024/03/16 11:08:50;;;;;;;9.50;4.97;;;;;;;21.29;56.92;100689.53;5034298;28;20056;-83
2024/03/16 11:11:55;;;;;;;8.50;5.22;;;;;;;21.18;57.26;100687.31;5033248;28;20397;-83
2024/03/16 11:15:46;;;;;;;9.82;5.47;;;;;;;20.87;58.42;100693.03;5046018;28;20063;-78
2024/03/16 11:18:59;;;;;;;9.43;4.85;;;;;;;20.83;57.61;100686.28;5044965;28;20036;-85
2024/03/16 11:22:08;;;;;;;9.93;5.65;;;;;;;20.82;57.97;100683.72;5035635;28;20048;-81
2024/03/16 11:25:19;;;;;;;10.13;5.15;;;;;;;20.81;56.63;100688.38;5034415;28;20377;-78
2024/03/16 11:28:24;;;;;;;8.63;4.68;;;;;;;20.75;56.60;100681.78;5034099;28;20045;-81
2024/03/16 11:31:39;;;;;;;6.57;4.22;;;;;;;20.80;55.14;100678.47;5033957;28;20069;-81
2024/03/16 11:34:44;;;;;;;8.38;5.32;;;;;;;20.92;57.53;100682.38;5033889;28;20044;-80
2024/03/16 11:37:50;;;;;;;8.23;5.88;;;;;;;20.75;57.79;100678.22;5034035;28;20048;-85
2024/03/16 11:40:54;;;;;;;7.50;4.57;;;;;;;20.79;56.50;100676.78;5021402;28;20056;-83
2024/03/16 11:43:59;;;;;;;7.45;4.78;;;;;;;20.81;55.40;100668.41;5033860;28;20045;-81
2024/03/16 11:47:05;;;;;;;6.32;4.40;;;;;;;20.97;54.58;100677.19;5033768;28;20045;-85
2024/03/16 11:50:10;;;;;;;8.82;3.95;;;;;;;21.05;54.64;100673.50;5033634;28;20136;-82
2024/03/16 11:53:15;;;;;;;9.95;4.88;;;;;;;21.18;52.59;100671.75;5033845;28;20045;-79
2024/03/16 11:56:25;;;;;;;8.18;4.72;;;;;;;21.21;52.45;100667.78;5033644;28;20468;-79
2024/03/16 11:59:29;;;;;;;7.85;4.25;;;;;;;21.14;53.99;100664.16;5033623;28;20057;-80
2024/03/16 12:02:34;;;;;;;8.27;4.35;;;;;;;21.25;54.80;100672.69;5033670;28;20056;-79
2024/03/16 12:05:38;;;;;;;10.48;4.70;;;;;;;21.25;52.78;100661.78;5033674;28;20060;-85
2024/03/16 12:08:43;;;;;;;9.73;3.95;;;;;;;21.33;52.12;100663.53;5033640;28;20057;-79
2024/03/16 12:11:48;;;;;;;6.35;3.78;;;;;;;21.37;52.83;100660.19;5033705;28;20579;-84
2024/03/16 12:15:15;;;;;;;6.05;3.70;;;;;;;21.44;52.14;100643.84;5033470;28;20068;-84
2024/03/16 12:18:22;;;;;;;6.43;3.38;;;;;;;21.47;53.19;100642.63;5021670;28;20389;-79
2024/03/16 12:21:27;;;;;;;5.88;3.97;;;;;;;21.23;54.43;100642.00;5009721;28;20052;-82
2024/03/16 12:24:32;;;;;;;7.72;4.45;;;;;;;21.11;55.12;100640.81;5037267;28;20052;-80
2024/03/16 12:27:49;;;;;;;6.05;3.90;;;;;;;21.16;55.69;100632.91;5037030;28;20049;-80
2024/03/16 12:30:55;;;;;;;6.35;3.63;;;;;;;21.31;53.47;100624.63;5037250;28;20519;-79
2024/03/16 12:34:02;;;;;;;8.43;4.07;;;;;;;21.14;53.91;100628.69;5036937;28;20076;-78
2024/03/16 12:37:09;;;;;;;8.82;3.38;;;;;;;21.18;53.35;100635.44;5037139;28;20056;-78
2024/03/16 12:40:13;;;;;;;7.32;3.00;;;;;;;21.15;53.23;100636.69;5024750;28;20397;-83
2024/03/16 12:43:19;;;;;;;8.45;3.55;;;;;;;21.11;52.33;100635.38;5024700;28;20068;-80
2024/03/16 12:46:23;;;;;;;4.68;2.88;;;;;;;21.19;51.48;100642.59;5024719;28;20476;-82
2024/03/16 12:49:27;;;;;;;4.68;2.50;;;;;;;21.22;51.66;100636.72;5036947;28;20057;-81
2024/03/16 12:52:32;;;;;;;5.72;2.58;;;;;;;21.20;51.85;100642.41;5024713;28;20053;-83
2024/03/16 12:55:36;;;;;;;6.00;3.45;;;;;;;21.13;52.76;100638.75;5038344;28;20492;-85
2024/03/16 12:58:41;;;;;;;8.60;3.55;;;;;;;21.20;53.64;100641.56;5059826;28;20067;-82
2024/03/16 13:01:49;;;;;;;10.30;4.57;;;;;;;21.22;52.53;100631.28;5048065;28;20056;-84
2024/03/16 13:04:55;;;;;;;7.72;3.53;;;;;;;21.37;52.26;100630.16;5039569;28;20052;-85
2024/03/16 13:08:00;;;;;;;7.15;3.55;;;;;;;21.36;52.20;100631.19;5024746;28;20492;-82
2024/03/16 13:11:05;;;;;;;8.73;3.50;;;;;;;21.38;52.11;100618.16;5024455;28;20487;-81
2024/03/16 13:14:10;;;;;;;6.35;2.85;;;;;;;21.39;52.15;100622.59;5024096;28;20064;-77
2024/03/16 13:17:15;;;;;;;6.43;3.13;;;;;;;21.32;51.42;100609.94;5012876;28;20049;-81
2024/03/16 13:20:20;;;;;;;5.03;2.72;;;;;;;21.34;52.10;100603.22;4990001;28;20061;-80
2024/03/16 13:23:26;;;;;;;5.18;3.05;;;;;;;21.33;53.12;100604.25;4998902;28;20049;-81
2024/03/16 13:26:31;;;;;;;5.18;3.25;;;;;;;21.16;52.66;100599.28;4996174;28;20050;-80
2024/03/16 13:29:40;;;;;;;5.80;3.47;;;;;;;21.01;53.54;100601.25;4993959;28;20050;-79
2024/03/16 13:32:45;;;;;;;6.20;3.30;;;;;;;21.23;53.63;100603.75;5004917;28;20053;-81
2024/03/16 13:35:53;;;;;;;7.85;3.47;;;;;;;21.23;52.57;100598.31;5005451;28;20061;-81
2024/03/16 13:38:58;;;;;;;4.68;2.92;;;;;;;21.21;52.94;100599.53;4997328;28;20504;-77
2024/03/16 13:42:05;;;;;;;5.78;3.17;;;;;;;21.27;52.91;100591.41;5015885;28;20496;-78
2024/03/16 13:45:11;;;;;;;7.30;3.50;;;;;;;21.37;52.76;100589.19;5015870;28;20057;-77
2024/03/16 13:48:15;;;;;;;5.57;2.90;;;;;;;21.34;53.05;100581.38;5015845;28;20057;-78
2024/03/16 13:51:23;;;;;;;6.10;3.45;;;;;;;21.36;52.63;100587.50;4991178;28;20069;-78
2024/03/16 13:54:28;;;;;;;7.65;3.80;;;;;;;21.20;52.52;100593.25;5004639;28;20053;-77
2024/03/16 13:57:33;;;;;;;5.10;3.17;;;;;;;21.26;52.70;100588.88;5006425;28;20057;-77
2024/03/16 14:00:38;;;;;;;4.30;2.80;;;;;;;21.46;52.74;100594.47;5015420;28;20504;-76
2024/03/16 14:03:43;;;;;;;5.90;3.60;;;;;;;21.43;52.37;100586.72;5015560;28;20049;-76
2024/03/16 14:06:48;;;;;;;7.25;3.45;;;;;;;21.47;52.56;100585.25;5015390;28;20053;-77
2024/03/16 14:09:52;;;;;;;6.55;3.30;;;;;;;21.41;52.65;100586.88;5015416;28;20486;-77
2024/03/16 14:12:57;;;;;;;8.63;3.58;;;;;;;21.45;52.11;100582.72;5015357;28;20076;-77
2024/03/16 14:16:08;;;;;;;6.07;3.20;;;;;;;21.50;51.76;100584.88;5026619;28;20060;-77
2024/03/16 14:19:13;;;;;;;5.60;3.08;;;;;;;21.46;52.48;100580.81;5035079;28;20123;-77
2024/03/16 14:22:20;;;;;;;5.90;2.75;;;;;;;21.48;52.04;100576.84;5023201;28;20064;-78